sensor_id;sensor_type;location;lat;lon;timestamp;temperature;humidity
47350;DHT22;33088;51.982;5.872;2022-08-14T00:02:03;23.90;90.00
47350;DHT22;33088;51.982;5.872;2022-08-14T00:04:30;23.80;90.40
47350;DHT22;33088;51.982;5.872;2022-08-14T00:06:56;23.80;90.30
47350;DHT22;33088;51.982;5.872;2022-08-14T00:09:21;23.80;90.30
47350;DHT22;33088;51.982;5.872;2022-08-14T00:11:47;23.90;90.40
47350;DHT22;33088;51.982;5.872;2022-08-14T00:14:13;23.70;90.50
47350;DHT22;33088;51.982;5.872;2022-08-14T00:16:39;23.60;90.60
47350;DHT22;33088;51.982;5.872;2022-08-14T00:19:04;23.60;90.60
47350;DHT22;33088;51.982;5.872;2022-08-14T00:21:30;23.50;90.70
47350;DHT22;33088;51.982;5.872;2022-08-14T00:23:56;23.50;90.80
47350;DHT22;33088;51.982;5.872;2022-08-14T00:26:23;23.50;90.90
47350;DHT22;33088;51.982;5.872;2022-08-14T00:28:50;23.50;91.00
47350;DHT22;33088;51.982;5.872;2022-08-14T00:31:16;23.50;91.10
47350;DHT22;33088;51.982;5.872;2022-08-14T00:33:42;23.40;91.30
47350;DHT22;33088;51.982;5.872;2022-08-14T00:36:08;23.30;91.40
47350;DHT22;33088;51.982;5.872;2022-08-14T00:38:34;23.30;91.60
47350;DHT22;33088;51.982;5.872;2022-08-14T00:41:02;23.30;91.60
47350;DHT22;33088;51.982;5.872;2022-08-14T00:43:29;23.20;91.70
47350;DHT22;33088;51.982;5.872;2022-08-14T00:45:55;23.20;91.80
47350;DHT22;33088;51.982;5.872;2022-08-14T00:48:20;23.20;91.80
47350;DHT22;33088;51.982;5.872;2022-08-14T00:50:46;23.10;91.90
47350;DHT22;33088;51.982;5.872;2022-08-14T00:53:12;23.10;92.10
47350;DHT22;33088;51.982;5.872;2022-08-14T00:55:38;23.00;92.20
47350;DHT22;33088;51.982;5.872;2022-08-14T00:58:06;23.10;92.20
47350;DHT22;33088;51.982;5.872;2022-08-14T01:00:50;22.90;92.40
47350;DHT22;33088;51.982;5.872;2022-08-14T01:03:18;22.90;92.50
47350;DHT22;33088;51.982;5.872;2022-08-14T01:05:45;22.80;92.70
47350;DHT22;33088;51.982;5.872;2022-08-14T01:08:21;22.80;92.70
47350;DHT22;33088;51.982;5.872;2022-08-14T01:10:48;22.70;92.80
47350;DHT22;33088;51.982;5.872;2022-08-14T01:13:26;22.80;92.80
47350;DHT22;33088;51.982;5.872;2022-08-14T01:15:54;22.50;92.90
47350;DHT22;33088;51.982;5.872;2022-08-14T01:18:22;22.60;93.10
47350;DHT22;33088;51.982;5.872;2022-08-14T01:21:08;22.60;93.10
47350;DHT22;33088;51.982;5.872;2022-08-14T01:23:42;22.60;93.10
47350;DHT22;33088;51.982;5.872;2022-08-14T01:26:08;22.50;93.20
47350;DHT22;33088;51.982;5.872;2022-08-14T01:28:35;22.50;93.40
47350;DHT22;33088;51.982;5.872;2022-08-14T01:31:10;22.50;93.40
47350;DHT22;33088;51.982;5.872;2022-08-14T01:33:37;22.50;93.50
47350;DHT22;33088;51.982;5.872;2022-08-14T01:36:06;22.40;93.50
47350;DHT22;33088;51.982;5.872;2022-08-14T01:38:33;22.40;93.60
47350;DHT22;33088;51.982;5.872;2022-08-14T01:41:01;22.40;93.70
47350;DHT22;33088;51.982;5.872;2022-08-14T01:43:26;22.30;93.70
47350;DHT22;33088;51.982;5.872;2022-08-14T01:45:57;22.30;93.70
47350;DHT22;33088;51.982;5.872;2022-08-14T01:48:26;22.40;93.80
47350;DHT22;33088;51.982;5.872;2022-08-14T01:50:56;22.30;93.90
47350;DHT22;33088;51.982;5.872;2022-08-14T01:53:22;22.30;94.00
47350;DHT22;33088;51.982;5.872;2022-08-14T01:55:47;22.10;94.10
47350;DHT22;33088;51.982;5.872;2022-08-14T01:58:16;22.40;94.20
47350;DHT22;33088;51.982;5.872;2022-08-14T02:00:43;22.20;94.20
47350;DHT22;33088;51.982;5.872;2022-08-14T02:03:08;22.20;94.30
47350;DHT22;33088;51.982;5.872;2022-08-14T02:05:34;22.20;94.30
47350;DHT22;33088;51.982;5.872;2022-08-14T02:08:01;22.10;94.40
47350;DHT22;33088;51.982;5.872;2022-08-14T02:10:26;22.10;94.40
47350;DHT22;33088;51.982;5.872;2022-08-14T02:12:55;22.10;94.40
47350;DHT22;33088;51.982;5.872;2022-08-14T02:15:21;22.10;94.50
47350;DHT22;33088;51.982;5.872;2022-08-14T02:17:48;22.10;94.60
47350;DHT22;33088;51.982;5.872;2022-08-14T02:20:14;22.00;94.70
47350;DHT22;33088;51.982;5.872;2022-08-14T02:22:42;22.00;94.80
47350;DHT22;33088;51.982;5.872;2022-08-14T02:25:08;22.10;94.90
47350;DHT22;33088;51.982;5.872;2022-08-14T02:27:35;21.90;95.00
47350;DHT22;33088;51.982;5.872;2022-08-14T02:30:03;21.90;95.00
47350;DHT22;33088;51.982;5.872;2022-08-14T02:32:30;21.80;95.10
47350;DHT22;33088;51.982;5.872;2022-08-14T02:34:58;21.90;95.20
47350;DHT22;33088;51.982;5.872;2022-08-14T02:37:25;21.80;95.50
47350;DHT22;33088;51.982;5.872;2022-08-14T02:39:50;21.80;95.30
47350;DHT22;33088;51.982;5.872;2022-08-14T02:42:18;21.80;95.30
47350;DHT22;33088;51.982;5.872;2022-08-14T02:44:47;21.80;95.30
47350;DHT22;33088;51.982;5.872;2022-08-14T02:47:14;21.70;95.50
47350;DHT22;33088;51.982;5.872;2022-08-14T02:49:40;21.80;95.70
47350;DHT22;33088;51.982;5.872;2022-08-14T02:52:06;21.60;95.80
47350;DHT22;33088;51.982;5.872;2022-08-14T02:54:34;21.60;95.90
47350;DHT22;33088;51.982;5.872;2022-08-14T02:57:00;21.60;95.90
47350;DHT22;33088;51.982;5.872;2022-08-14T02:59:32;21.50;96.10
47350;DHT22;33088;51.982;5.872;2022-08-14T03:01:58;21.50;96.30
47350;DHT22;33088;51.982;5.872;2022-08-14T03:04:24;21.50;96.30
47350;DHT22;33088;51.982;5.872;2022-08-14T03:06:53;21.40;96.50
47350;DHT22;33088;51.982;5.872;2022-08-14T03:09:18;21.30;96.60
47350;DHT22;33088;51.982;5.872;2022-08-14T03:11:44;21.20;96.70
47350;DHT22;33088;51.982;5.872;2022-08-14T03:14:11;21.20;96.80
47350;DHT22;33088;51.982;5.872;2022-08-14T03:16:39;21.20;96.80
47350;DHT22;33088;51.982;5.872;2022-08-14T03:19:06;21.20;97.00
47350;DHT22;33088;51.982;5.872;2022-08-14T03:21:34;21.20;97.10
47350;DHT22;33088;51.982;5.872;2022-08-14T03:24:03;21.20;97.10
47350;DHT22;33088;51.982;5.872;2022-08-14T03:26:39;21.10;97.20
47350;DHT22;33088;51.982;5.872;2022-08-14T03:29:06;21.20;97.20
47350;DHT22;33088;51.982;5.872;2022-08-14T03:31:32;21.10;97.30
47350;DHT22;33088;51.982;5.872;2022-08-14T03:33:59;21.10;97.40
47350;DHT22;33088;51.982;5.872;2022-08-14T03:36:24;21.10;97.50
47350;DHT22;33088;51.982;5.872;2022-08-14T03:38:51;21.10;97.50
47350;DHT22;33088;51.982;5.872;2022-08-14T03:41:22;21.00;97.60
47350;DHT22;33088;51.982;5.872;2022-08-14T03:43:58;21.00;97.70
47350;DHT22;33088;51.982;5.872;2022-08-14T03:46:25;21.00;97.70
47350;DHT22;33088;51.982;5.872;2022-08-14T03:48:52;20.90;97.80
47350;DHT22;33088;51.982;5.872;2022-08-14T03:51:20;21.00;97.90
47350;DHT22;33088;51.982;5.872;2022-08-14T03:53:47;20.90;97.90
47350;DHT22;33088;51.982;5.872;2022-08-14T03:56:16;21.00;98.10
47350;DHT22;33088;51.982;5.872;2022-08-14T03:58:45;20.90;98.10
47350;DHT22;33088;51.982;5.872;2022-08-14T04:01:16;21.00;98.20
47350;DHT22;33088;51.982;5.872;2022-08-14T04:03:44;20.90;98.30
47350;DHT22;33088;51.982;5.872;2022-08-14T04:06:10;20.80;98.50
47350;DHT22;33088;51.982;5.872;2022-08-14T04:08:40;20.80;98.60
47350;DHT22;33088;51.982;5.872;2022-08-14T04:11:06;20.90;98.70
47350;DHT22;33088;51.982;5.872;2022-08-14T04:13:34;20.70;98.70
47350;DHT22;33088;51.982;5.872;2022-08-14T04:16:03;20.70;98.80
47350;DHT22;33088;51.982;5.872;2022-08-14T04:18:29;20.80;98.90
47350;DHT22;33088;51.982;5.872;2022-08-14T04:20:57;20.70;99.00
47350;DHT22;33088;51.982;5.872;2022-08-14T04:23:23;20.80;99.10
47350;DHT22;33088;51.982;5.872;2022-08-14T04:25:50;20.70;99.10
47350;DHT22;33088;51.982;5.872;2022-08-14T04:28:19;20.70;99.20
47350;DHT22;33088;51.982;5.872;2022-08-14T04:30:45;20.70;99.30
47350;DHT22;33088;51.982;5.872;2022-08-14T04:33:12;20.70;99.30
47350;DHT22;33088;51.982;5.872;2022-08-14T04:35:39;20.70;99.30
47350;DHT22;33088;51.982;5.872;2022-08-14T04:38:09;20.70;99.40
47350;DHT22;33088;51.982;5.872;2022-08-14T04:40:54;20.80;99.50
47350;DHT22;33088;51.982;5.872;2022-08-14T04:43:38;20.60;99.60
47350;DHT22;33088;51.982;5.872;2022-08-14T04:46:12;20.60;99.60
47350;DHT22;33088;51.982;5.872;2022-08-14T04:48:39;20.60;99.60
47350;DHT22;33088;51.982;5.872;2022-08-14T04:51:08;20.70;99.60
47350;DHT22;33088;51.982;5.872;2022-08-14T04:53:38;20.70;99.70
47350;DHT22;33088;51.982;5.872;2022-08-14T04:56:06;20.70;99.70
47350;DHT22;33088;51.982;5.872;2022-08-14T04:58:34;20.70;99.80
47350;DHT22;33088;51.982;5.872;2022-08-14T05:01:03;20.70;99.80
47350;DHT22;33088;51.982;5.872;2022-08-14T05:03:32;20.60;99.90
47350;DHT22;33088;51.982;5.872;2022-08-14T05:06:01;20.70;99.90
47350;DHT22;33088;51.982;5.872;2022-08-14T05:08:28;20.70;99.90
47350;DHT22;33088;51.982;5.872;2022-08-14T05:10:57;20.70;99.90
47350;DHT22;33088;51.982;5.872;2022-08-14T05:13:25;20.70;99.90
47350;DHT22;33088;51.982;5.872;2022-08-14T05:15:53;20.70;99.90
47350;DHT22;33088;51.982;5.872;2022-08-14T05:18:28;20.80;99.90
47350;DHT22;33088;51.982;5.872;2022-08-14T05:20:57;20.70;99.90
47350;DHT22;33088;51.982;5.872;2022-08-14T05:23:32;20.80;99.90
47350;DHT22;33088;51.982;5.872;2022-08-14T05:26:00;21.00;99.90
47350;DHT22;33088;51.982;5.872;2022-08-14T05:28:33;20.90;99.80
47350;DHT22;33088;51.982;5.872;2022-08-14T05:31:01;21.00;99.80
47350;DHT22;33088;51.982;5.872;2022-08-14T05:33:29;21.10;99.70
47350;DHT22;33088;51.982;5.872;2022-08-14T05:35:58;21.10;99.60
47350;DHT22;33088;51.982;5.872;2022-08-14T05:38:33;21.20;99.80
47350;DHT22;33088;51.982;5.872;2022-08-14T05:41:08;21.30;99.50
47350;DHT22;33088;51.982;5.872;2022-08-14T05:43:34;21.30;99.30
47350;DHT22;33088;51.982;5.872;2022-08-14T05:46:00;21.30;99.40
47350;DHT22;33088;51.982;5.872;2022-08-14T05:48:26;21.40;99.40
47350;DHT22;33088;51.982;5.872;2022-08-14T05:50:52;21.40;99.50
47350;DHT22;33088;51.982;5.872;2022-08-14T05:53:24;21.50;99.50
47350;DHT22;33088;51.982;5.872;2022-08-14T05:55:50;21.50;99.40
47350;DHT22;33088;51.982;5.872;2022-08-14T05:58:16;21.70;99.40
47350;DHT22;33088;51.982;5.872;2022-08-14T06:00:43;21.60;99.30
47350;DHT22;33088;51.982;5.872;2022-08-14T06:03:14;21.70;99.20
47350;DHT22;33088;51.982;5.872;2022-08-14T06:05:42;21.80;98.90
47350;DHT22;33088;51.982;5.872;2022-08-14T06:08:22;21.90;98.90
47350;DHT22;33088;51.982;5.872;2022-08-14T06:10:50;22.00;98.70
47350;DHT22;33088;51.982;5.872;2022-08-14T06:13:17;22.00;98.70
47350;DHT22;33088;51.982;5.872;2022-08-14T06:15:44;22.10;98.80
47350;DHT22;33088;51.982;5.872;2022-08-14T06:18:10;22.10;98.80
47350;DHT22;33088;51.982;5.872;2022-08-14T06:20:37;22.10;98.70
47350;DHT22;33088;51.982;5.872;2022-08-14T06:23:03;22.40;98.60
47350;DHT22;33088;51.982;5.872;2022-08-14T06:25:29;22.20;98.40
47350;DHT22;33088;51.982;5.872;2022-08-14T06:27:56;22.30;98.10
47350;DHT22;33088;51.982;5.872;2022-08-14T06:30:26;22.30;98.40
47350;DHT22;33088;51.982;5.872;2022-08-14T06:32:52;22.40;98.40
47350;DHT22;33088;51.982;5.872;2022-08-14T06:35:18;22.50;98.40
47350;DHT22;33088;51.982;5.872;2022-08-14T06:37:52;22.60;97.90
47350;DHT22;33088;51.982;5.872;2022-08-14T06:40:28;22.60;98.00
47350;DHT22;33088;51.982;5.872;2022-08-14T06:42:56;22.70;98.40
47350;DHT22;33088;51.982;5.872;2022-08-14T06:45:22;22.80;97.90
47350;DHT22;33088;51.982;5.872;2022-08-14T06:47:48;22.80;97.80
47350;DHT22;33088;51.982;5.872;2022-08-14T06:50:16;22.80;97.80
47350;DHT22;33088;51.982;5.872;2022-08-14T06:52:43;22.90;97.50
47350;DHT22;33088;51.982;5.872;2022-08-14T06:55:11;23.00;97.90
47350;DHT22;33088;51.982;5.872;2022-08-14T06:57:56;23.00;97.40
47350;DHT22;33088;51.982;5.872;2022-08-14T07:00:24;23.10;97.60
47350;DHT22;33088;51.982;5.872;2022-08-14T07:02:50;23.10;97.60
47350;DHT22;33088;51.982;5.872;2022-08-14T07:05:36;23.10;97.40
47350;DHT22;33088;51.982;5.872;2022-08-14T07:10:52;23.20;97.40
47350;DHT22;33088;51.982;5.872;2022-08-14T07:13:19;23.30;97.30
47350;DHT22;33088;51.982;5.872;2022-08-14T07:15:47;23.10;97.50
47350;DHT22;33088;51.982;5.872;2022-08-14T07:18:18;23.30;97.80
47350;DHT22;33088;51.982;5.872;2022-08-14T07:20:44;23.40;97.40
47350;DHT22;33088;51.982;5.872;2022-08-14T07:23:10;23.50;97.50
47350;DHT22;33088;51.982;5.872;2022-08-14T07:25:38;23.60;96.90
47350;DHT22;33088;51.982;5.872;2022-08-14T07:28:29;23.60;97.30
47350;DHT22;33088;51.982;5.872;2022-08-14T07:30:58;23.70;97.20
47350;DHT22;33088;51.982;5.872;2022-08-14T07:33:27;23.80;97.20
47350;DHT22;33088;51.982;5.872;2022-08-14T07:35:54;23.80;97.10
47350;DHT22;33088;51.982;5.872;2022-08-14T07:38:22;23.80;97.10
47350;DHT22;33088;51.982;5.872;2022-08-14T07:40:49;24.00;97.00
47350;DHT22;33088;51.982;5.872;2022-08-14T07:43:16;24.10;96.50
47350;DHT22;33088;51.982;5.872;2022-08-14T07:45:42;24.10;96.50
47350;DHT22;33088;51.982;5.872;2022-08-14T07:48:08;24.10;96.60
47350;DHT22;33088;51.982;5.872;2022-08-14T07:50:34;24.20;96.70
47350;DHT22;33088;51.982;5.872;2022-08-14T07:53:00;24.20;96.50
47350;DHT22;33088;51.982;5.872;2022-08-14T07:55:26;24.30;96.40
47350;DHT22;33088;51.982;5.872;2022-08-14T07:57:52;24.40;96.40
47350;DHT22;33088;51.982;5.872;2022-08-14T08:00:23;24.50;96.40
47350;DHT22;33088;51.982;5.872;2022-08-14T08:02:51;24.60;96.30
47350;DHT22;33088;51.982;5.872;2022-08-14T08:05:18;24.70;95.80
47350;DHT22;33088;51.982;5.872;2022-08-14T08:07:45;24.80;96.00
47350;DHT22;33088;51.982;5.872;2022-08-14T08:10:15;24.80;96.30
47350;DHT22;33088;51.982;5.872;2022-08-14T08:13:08;24.80;95.60
47350;DHT22;33088;51.982;5.872;2022-08-14T08:15:47;24.80;95.60
47350;DHT22;33088;51.982;5.872;2022-08-14T08:18:14;24.90;95.90
47350;DHT22;33088;51.982;5.872;2022-08-14T08:20:47;25.00;95.70
47350;DHT22;33088;51.982;5.872;2022-08-14T08:23:14;25.10;95.50
47350;DHT22;33088;51.982;5.872;2022-08-14T08:25:44;25.10;95.40
47350;DHT22;33088;51.982;5.872;2022-08-14T08:28:16;25.30;95.80
47350;DHT22;33088;51.982;5.872;2022-08-14T08:30:52;25.40;95.40
47350;DHT22;33088;51.982;5.872;2022-08-14T08:33:20;25.40;94.80
47350;DHT22;33088;51.982;5.872;2022-08-14T08:35:47;25.50;94.90
47350;DHT22;33088;51.982;5.872;2022-08-14T08:38:18;25.60;94.70
47350;DHT22;33088;51.982;5.872;2022-08-14T08:40:48;25.70;94.60
47350;DHT22;33088;51.982;5.872;2022-08-14T08:43:20;25.70;94.70
47350;DHT22;33088;51.982;5.872;2022-08-14T08:48:24;25.80;94.70
47350;DHT22;33088;51.982;5.872;2022-08-14T08:51:01;25.90;94.40
47350;DHT22;33088;51.982;5.872;2022-08-14T08:53:32;25.90;94.80
47350;DHT22;33088;51.982;5.872;2022-08-14T08:55:58;26.10;94.50
47350;DHT22;33088;51.982;5.872;2022-08-14T08:58:25;26.10;94.20
47350;DHT22;33088;51.982;5.872;2022-08-14T09:00:54;26.30;94.00
47350;DHT22;33088;51.982;5.872;2022-08-14T09:03:22;26.40;93.70
47350;DHT22;33088;51.982;5.872;2022-08-14T09:08:23;26.60;94.10
47350;DHT22;33088;51.982;5.872;2022-08-14T09:10:51;26.80;93.00
47350;DHT22;33088;51.982;5.872;2022-08-14T09:13:17;26.70;92.90
47350;DHT22;33088;51.982;5.872;2022-08-14T09:15:45;26.80;93.50
47350;DHT22;33088;51.982;5.872;2022-08-14T09:18:13;26.80;93.30
47350;DHT22;33088;51.982;5.872;2022-08-14T09:20:41;27.00;93.00
47350;DHT22;33088;51.982;5.872;2022-08-14T09:23:11;27.00;92.90
47350;DHT22;33088;51.982;5.872;2022-08-14T09:25:38;27.00;92.90
47350;DHT22;33088;51.982;5.872;2022-08-14T09:28:07;27.10;92.70
47350;DHT22;33088;51.982;5.872;2022-08-14T09:30:36;27.20;92.90
47350;DHT22;33088;51.982;5.872;2022-08-14T09:38:23;27.50;91.90
47350;DHT22;33088;51.982;5.872;2022-08-14T09:44:13;27.60;91.90
47350;DHT22;33088;51.982;5.872;2022-08-14T09:46:54;27.70;92.50
47350;DHT22;33088;51.982;5.872;2022-08-14T09:49:37;27.80;91.60
47350;DHT22;33088;51.982;5.872;2022-08-14T09:52:10;27.80;92.00
47350;DHT22;33088;51.982;5.872;2022-08-14T09:54:39;27.80;92.10
47350;DHT22;33088;51.982;5.872;2022-08-14T09:57:05;28.00;90.60
47350;DHT22;33088;51.982;5.872;2022-08-14T09:59:45;28.10;90.90
47350;DHT22;33088;51.982;5.872;2022-08-14T10:02:26;28.30;90.90
47350;DHT22;33088;51.982;5.872;2022-08-14T10:05:06;28.30;90.50
47350;DHT22;33088;51.982;5.872;2022-08-14T10:07:52;28.30;90.30
47350;DHT22;33088;51.982;5.872;2022-08-14T10:12:56;28.40;90.00
47350;DHT22;33088;51.982;5.872;2022-08-14T10:15:29;28.50;90.10
47350;DHT22;33088;51.982;5.872;2022-08-14T10:18:09;28.70;90.00
47350;DHT22;33088;51.982;5.872;2022-08-14T10:20:41;28.70;90.30
47350;DHT22;33088;51.982;5.872;2022-08-14T10:23:16;28.80;90.30
47350;DHT22;33088;51.982;5.872;2022-08-14T10:25:48;28.90;90.80
47350;DHT22;33088;51.982;5.872;2022-08-14T10:28:19;28.90;90.10
47350;DHT22;33088;51.982;5.872;2022-08-14T10:30:47;29.00;88.50
47350;DHT22;33088;51.982;5.872;2022-08-14T10:33:30;29.10;89.60
47350;DHT22;33088;51.982;5.872;2022-08-14T10:35:57;29.20;90.00
47350;DHT22;33088;51.982;5.872;2022-08-14T10:38:35;29.30;89.20
47350;DHT22;33088;51.982;5.872;2022-08-14T10:41:11;29.40;89.20
47350;DHT22;33088;51.982;5.872;2022-08-14T10:43:39;29.60;87.50
47350;DHT22;33088;51.982;5.872;2022-08-14T10:46:16;29.50;87.80
47350;DHT22;33088;51.982;5.872;2022-08-14T10:48:58;29.60;88.20
47350;DHT22;33088;51.982;5.872;2022-08-14T10:51:28;29.80;87.90
47350;DHT22;33088;51.982;5.872;2022-08-14T10:53:55;29.80;86.80
47350;DHT22;33088;51.982;5.872;2022-08-14T10:56:29;29.90;85.70
47350;DHT22;33088;51.982;5.872;2022-08-14T10:59:04;29.90;86.00
47350;DHT22;33088;51.982;5.872;2022-08-14T11:01:33;30.10;86.30
47350;DHT22;33088;51.982;5.872;2022-08-14T11:03:59;30.20;85.30
47350;DHT22;33088;51.982;5.872;2022-08-14T11:06:26;30.30;84.70
47350;DHT22;33088;51.982;5.872;2022-08-14T11:08:52;30.30;84.90
47350;DHT22;33088;51.982;5.872;2022-08-14T11:11:20;30.50;85.70
47350;DHT22;33088;51.982;5.872;2022-08-14T11:13:47;30.70;86.20
47350;DHT22;33088;51.982;5.872;2022-08-14T11:16:15;30.80;84.00
47350;DHT22;33088;51.982;5.872;2022-08-14T11:18:46;30.80;84.30
47350;DHT22;33088;51.982;5.872;2022-08-14T11:21:18;30.70;84.60
47350;DHT22;33088;51.982;5.872;2022-08-14T11:23:47;30.90;84.30
47350;DHT22;33088;51.982;5.872;2022-08-14T11:26:17;30.90;84.80
47350;DHT22;33088;51.982;5.872;2022-08-14T11:28:48;31.00;84.20
47350;DHT22;33088;51.982;5.872;2022-08-14T11:31:19;31.10;83.00
47350;DHT22;33088;51.982;5.872;2022-08-14T11:33:49;31.00;82.00
47350;DHT22;33088;51.982;5.872;2022-08-14T11:36:22;31.10;83.50
47350;DHT22;33088;51.982;5.872;2022-08-14T11:38:48;31.10;82.30
47350;DHT22;33088;51.982;5.872;2022-08-14T11:41:14;31.30;84.50
47350;DHT22;33088;51.982;5.872;2022-08-14T11:43:45;31.40;83.10
47350;DHT22;33088;51.982;5.872;2022-08-14T11:46:11;31.40;81.30
47350;DHT22;33088;51.982;5.872;2022-08-14T11:48:53;31.30;80.80
47350;DHT22;33088;51.982;5.872;2022-08-14T11:51:23;31.40;83.20
47350;DHT22;33088;51.982;5.872;2022-08-14T11:53:51;31.50;83.70
47350;DHT22;33088;51.982;5.872;2022-08-14T11:56:17;31.60;80.80
47350;DHT22;33088;51.982;5.872;2022-08-14T11:58:49;31.70;80.20
47350;DHT22;33088;51.982;5.872;2022-08-14T12:01:15;31.70;80.30
47350;DHT22;33088;51.982;5.872;2022-08-14T12:03:46;31.90;79.90
47350;DHT22;33088;51.982;5.872;2022-08-14T12:06:14;31.80;79.00
47350;DHT22;33088;51.982;5.872;2022-08-14T12:08:41;31.80;78.00
47350;DHT22;33088;51.982;5.872;2022-08-14T12:11:10;31.80;79.00
47350;DHT22;33088;51.982;5.872;2022-08-14T12:13:38;31.90;79.10
47350;DHT22;33088;51.982;5.872;2022-08-14T12:16:06;31.80;77.60
47350;DHT22;33088;51.982;5.872;2022-08-14T12:18:34;31.70;79.90
47350;DHT22;33088;51.982;5.872;2022-08-14T12:23:38;31.80;76.70
47350;DHT22;33088;51.982;5.872;2022-08-14T12:26:06;31.90;77.70
47350;DHT22;33088;51.982;5.872;2022-08-14T12:28:32;32.10;78.90
47350;DHT22;33088;51.982;5.872;2022-08-14T12:30:59;32.20;78.90
47350;DHT22;33088;51.982;5.872;2022-08-14T12:33:35;31.90;79.40
47350;DHT22;33088;51.982;5.872;2022-08-14T12:36:03;31.60;78.70
47350;DHT22;33088;51.982;5.872;2022-08-14T12:38:38;31.30;78.80
47350;DHT22;33088;51.982;5.872;2022-08-14T12:41:14;31.20;79.40
47350;DHT22;33088;51.982;5.872;2022-08-14T12:43:51;31.30;78.10
47350;DHT22;33088;51.982;5.872;2022-08-14T12:46:33;31.40;79.20
47350;DHT22;33088;51.982;5.872;2022-08-14T12:49:02;31.70;80.10
47350;DHT22;33088;51.982;5.872;2022-08-14T12:51:35;31.90;78.30
47350;DHT22;33088;51.982;5.872;2022-08-14T12:54:15;31.80;78.60
47350;DHT22;33088;51.982;5.872;2022-08-14T12:56:42;31.90;79.80
47350;DHT22;33088;51.982;5.872;2022-08-14T12:59:09;32.00;78.80
47350;DHT22;33088;51.982;5.872;2022-08-14T13:01:35;32.10;78.00
47350;DHT22;33088;51.982;5.872;2022-08-14T13:04:12;32.30;80.10
47350;DHT22;33088;51.982;5.872;2022-08-14T13:06:40;32.40;77.70
47350;DHT22;33088;51.982;5.872;2022-08-14T13:09:07;32.30;78.80
47350;DHT22;33088;51.982;5.872;2022-08-14T13:11:50;32.30;79.20
47350;DHT22;33088;51.982;5.872;2022-08-14T13:14:25;32.40;77.70
47350;DHT22;33088;51.982;5.872;2022-08-14T13:16:56;32.30;78.60
47350;DHT22;33088;51.982;5.872;2022-08-14T13:19:23;32.50;77.80
47350;DHT22;33088;51.982;5.872;2022-08-14T13:21:51;32.50;78.30
47350;DHT22;33088;51.982;5.872;2022-08-14T13:24:20;32.50;78.20
47350;DHT22;33088;51.982;5.872;2022-08-14T13:26:49;32.50;77.60
47350;DHT22;33088;51.982;5.872;2022-08-14T13:29:19;32.70;77.00
47350;DHT22;33088;51.982;5.872;2022-08-14T13:31:49;32.70;77.20
47350;DHT22;33088;51.982;5.872;2022-08-14T13:34:19;32.60;77.50
47350;DHT22;33088;51.982;5.872;2022-08-14T13:36:45;32.30;78.40
47350;DHT22;33088;51.982;5.872;2022-08-14T13:39:15;32.30;78.30
47350;DHT22;33088;51.982;5.872;2022-08-14T13:41:42;32.20;76.70
47350;DHT22;33088;51.982;5.872;2022-08-14T13:44:09;32.10;76.90
47350;DHT22;33088;51.982;5.872;2022-08-14T13:46:35;32.00;76.60
47350;DHT22;33088;51.982;5.872;2022-08-14T13:49:01;32.10;77.40
47350;DHT22;33088;51.982;5.872;2022-08-14T13:51:30;32.20;77.70
47350;DHT22;33088;51.982;5.872;2022-08-14T13:54:01;32.40;78.30
47350;DHT22;33088;51.982;5.872;2022-08-14T13:56:27;32.60;76.00
47350;DHT22;33088;51.982;5.872;2022-08-14T13:58:57;32.60;76.20
47350;DHT22;33088;51.982;5.872;2022-08-14T14:01:26;32.20;76.80
47350;DHT22;33088;51.982;5.872;2022-08-14T14:03:54;32.30;78.10
47350;DHT22;33088;51.982;5.872;2022-08-14T14:06:23;32.60;78.20
47350;DHT22;33088;51.982;5.872;2022-08-14T14:08:54;32.60;78.50
47350;DHT22;33088;51.982;5.872;2022-08-14T14:11:20;32.50;79.00
47350;DHT22;33088;51.982;5.872;2022-08-14T14:13:53;32.40;76.80
47350;DHT22;33088;51.982;5.872;2022-08-14T14:16:20;32.20;77.60
47350;DHT22;33088;51.982;5.872;2022-08-14T14:18:48;32.00;77.20
47350;DHT22;33088;51.982;5.872;2022-08-14T14:21:18;31.60;78.10
47350;DHT22;33088;51.982;5.872;2022-08-14T14:23:45;31.60;78.60
47350;DHT22;33088;51.982;5.872;2022-08-14T14:26:15;31.70;79.80
47350;DHT22;33088;51.982;5.872;2022-08-14T14:28:42;31.80;78.60
47350;DHT22;33088;51.982;5.872;2022-08-14T14:31:10;32.00;78.10
47350;DHT22;33088;51.982;5.872;2022-08-14T14:33:40;32.20;79.10
47350;DHT22;33088;51.982;5.872;2022-08-14T14:36:07;32.50;78.00
47350;DHT22;33088;51.982;5.872;2022-08-14T14:38:37;32.40;76.70
47350;DHT22;33088;51.982;5.872;2022-08-14T14:41:09;32.50;77.00
47350;DHT22;33088;51.982;5.872;2022-08-14T14:43:40;32.60;77.30
47350;DHT22;33088;51.982;5.872;2022-08-14T14:46:10;32.70;76.30
47350;DHT22;33088;51.982;5.872;2022-08-14T14:48:38;32.70;77.40
47350;DHT22;33088;51.982;5.872;2022-08-14T14:51:09;32.70;76.00
47350;DHT22;33088;51.982;5.872;2022-08-14T14:53:38;32.80;74.50
47350;DHT22;33088;51.982;5.872;2022-08-14T14:56:05;32.60;74.60
47350;DHT22;33088;51.982;5.872;2022-08-14T14:58:30;32.60;74.20
47350;DHT22;33088;51.982;5.872;2022-08-14T15:01:03;32.70;76.10
47350;DHT22;33088;51.982;5.872;2022-08-14T15:03:29;32.70;76.00
47350;DHT22;33088;51.982;5.872;2022-08-14T15:05:55;32.70;75.70
47350;DHT22;33088;51.982;5.872;2022-08-14T15:08:22;32.70;74.90
47350;DHT22;33088;51.982;5.872;2022-08-14T15:10:47;32.60;74.70
47350;DHT22;33088;51.982;5.872;2022-08-14T15:13:13;32.40;75.80
47350;DHT22;33088;51.982;5.872;2022-08-14T15:15:39;32.20;74.10
47350;DHT22;33088;51.982;5.872;2022-08-14T15:18:06;32.10;73.90
47350;DHT22;33088;51.982;5.872;2022-08-14T15:20:32;32.00;73.00
47350;DHT22;33088;51.982;5.872;2022-08-14T15:22:59;32.00;75.00
47350;DHT22;33088;51.982;5.872;2022-08-14T15:25:28;32.00;74.40
47350;DHT22;33088;51.982;5.872;2022-08-14T15:28:00;32.10;75.00
47350;DHT22;33088;51.982;5.872;2022-08-14T15:30:27;32.10;75.20
47350;DHT22;33088;51.982;5.872;2022-08-14T15:32:53;32.00;74.90
47350;DHT22;33088;51.982;5.872;2022-08-14T15:35:20;32.10;76.10
47350;DHT22;33088;51.982;5.872;2022-08-14T15:37:47;32.10;76.20
47350;DHT22;33088;51.982;5.872;2022-08-14T15:40:13;32.00;73.80
47350;DHT22;33088;51.982;5.872;2022-08-14T15:42:39;32.10;74.20
47350;DHT22;33088;51.982;5.872;2022-08-14T15:45:07;32.00;73.30
47350;DHT22;33088;51.982;5.872;2022-08-14T15:47:37;31.90;74.40
47350;DHT22;33088;51.982;5.872;2022-08-14T15:50:05;31.90;74.10
47350;DHT22;33088;51.982;5.872;2022-08-14T15:52:35;31.90;75.70
47350;DHT22;33088;51.982;5.872;2022-08-14T15:55:04;32.00;74.70
47350;DHT22;33088;51.982;5.872;2022-08-14T15:57:30;32.00;73.60
47350;DHT22;33088;51.982;5.872;2022-08-14T15:59:56;31.70;75.60
47350;DHT22;33088;51.982;5.872;2022-08-14T16:02:40;31.60;75.60
47350;DHT22;33088;51.982;5.872;2022-08-14T16:05:06;31.40;77.10